createdAt,value
2023-12-26T00:02:40.371Z,98813.30
2023-12-26T00:05:47.944Z,98819.79
2023-12-26T00:08:54.072Z,98816.76
2023-12-26T00:11:59.839Z,98823.45
2023-12-26T00:15:05.360Z,98829.55
2023-12-26T00:18:12.080Z,98823.16
2023-12-26T00:21:18.274Z,98828.65
2023-12-26T00:24:23.315Z,98830.80
2023-12-26T00:27:29.634Z,98826.05
2023-12-26T00:30:34.719Z,98830.80
2023-12-26T00:33:40.489Z,98833.66
2023-12-26T00:36:45.791Z,98822.16
2023-12-26T00:39:53.280Z,98811.88
2023-12-26T00:43:00.150Z,98824.10
2023-12-26T00:46:05.713Z,98820.79
2023-12-26T00:49:11.765Z,98832.11
2023-12-26T00:52:17.755Z,98839.06
2023-12-26T00:55:24.163Z,98850.35
2023-12-26T00:58:29.834Z,98844.47
2023-12-26T01:01:35.123Z,98852.17
2023-12-26T01:04:41.521Z,98854.42
2023-12-26T01:07:49.060Z,98849.95
2023-12-26T01:10:55.432Z,98862.27
2023-12-26T01:14:00.810Z,98859.38
2023-12-26T01:17:06.294Z,98867.81
2023-12-26T01:20:12.648Z,98861.37
2023-12-26T01:23:18.173Z,98867.28
2023-12-26T01:26:23.490Z,98867.52
2023-12-26T01:29:30.170Z,98865.84
2023-12-26T01:32:36.558Z,98873.05
2023-12-26T01:35:43.769Z,98869.92
2023-12-26T01:38:49.526Z,98868.13
2023-12-26T01:41:55.145Z,98874.00
2023-12-26T01:44:59.516Z,98878.39
2023-12-26T01:48:09.462Z,98891.66
2023-12-26T01:51:15.374Z,98893.93
2023-12-26T01:54:21.631Z,98900.73
2023-12-26T01:57:28.162Z,98904.11
2023-12-26T02:00:32.750Z,98909.56
2023-12-26T02:03:41.718Z,98911.81
2023-12-26T02:06:47.861Z,98911.94
2023-12-26T02:09:54.167Z,98918.91
2023-12-26T02:13:03.784Z,98932.08
2023-12-26T02:16:08.704Z,98928.76
2023-12-26T02:19:14.154Z,98930.13
2023-12-26T02:22:19.311Z,98930.32
2023-12-26T02:25:26.051Z,98933.99
2023-12-26T02:28:31.781Z,98929.22
2023-12-26T02:31:38.404Z,98932.66
2023-12-26T02:34:44.059Z,98948.48
2023-12-26T02:37:49.773Z,98943.20
2023-12-26T02:40:58.624Z,98940.09
2023-12-26T02:44:04.200Z,98943.81
2023-12-26T02:47:09.558Z,98946.76
2023-12-26T02:50:16.072Z,98946.39
2023-12-26T02:53:21.093Z,98959.20
2023-12-26T02:56:27.165Z,98967.54
2023-12-26T02:59:33.040Z,98972.87
2023-12-26T03:02:39.497Z,98980.16
2023-12-26T03:05:45.987Z,98984.14
2023-12-26T03:08:52.948Z,98981.53
2023-12-26T03:11:59.544Z,98986.58
2023-12-26T03:15:06.179Z,98990.96
2023-12-26T03:18:12.563Z,99000.91
2023-12-26T03:21:11.855Z,99006.46
2023-12-26T03:24:17.849Z,99024.39
2023-12-26T03:27:23.121Z,99029.89
2023-12-26T03:30:28.223Z,99034.24
2023-12-26T03:33:35.274Z,99037.03
2023-12-26T03:36:42.169Z,99047.88
2023-12-26T03:39:48.790Z,99044.64
2023-12-26T03:42:54.838Z,99052.02
2023-12-26T03:46:00.823Z,99049.39
2023-12-26T03:49:06.752Z,99059.48
2023-12-26T03:52:11.738Z,99053.64
2023-12-26T03:55:18.829Z,99064.39
2023-12-26T03:58:24.688Z,99063.79
2023-12-26T04:01:30.631Z,99060.71
2023-12-26T04:04:36.477Z,99058.08
2023-12-26T04:07:43.089Z,99054.86
2023-12-26T04:10:48.429Z,99065.13
2023-12-26T04:13:54.660Z,99070.23
2023-12-26T04:16:59.563Z,99075.70
2023-12-26T04:20:05.257Z,99078.22
2023-12-26T04:23:11.347Z,99084.31
2023-12-26T04:26:17.258Z,99080.88
2023-12-26T04:29:22.133Z,99094.77
2023-12-26T04:32:27.837Z,99104.37
2023-12-26T04:35:34.205Z,99099.75
2023-12-26T04:38:40.668Z,99106.46
2023-12-26T04:41:47.977Z,99110.57
2023-12-26T04:44:54.600Z,99114.46
2023-12-26T04:47:59.954Z,99117.93
2023-12-26T04:51:05.775Z,99124.22
2023-12-26T04:54:12.356Z,99125.13
2023-12-26T04:57:19.451Z,99127.23
2023-12-26T05:00:27.079Z,99125.02
2023-12-26T05:03:33.312Z,99135.21
2023-12-26T05:06:39.884Z,99124.95
2023-12-26T05:09:46.653Z,99136.36
2023-12-26T05:12:54.332Z,99140.69
2023-12-26T05:15:59.949Z,99143.97
2023-12-26T05:19:06.003Z,99156.08
2023-12-26T05:22:11.522Z,99161.38
2023-12-26T05:25:19.046Z,99165.05
2023-12-26T05:28:25.461Z,99173.39
2023-12-26T05:31:36.187Z,99181.41
2023-12-26T05:34:43.491Z,99180.02
2023-12-26T05:37:48.582Z,99192.30
2023-12-26T05:40:54.211Z,99202.45
2023-12-26T05:44:00.051Z,99200.97
2023-12-26T05:47:06.057Z,99202.03
2023-12-26T05:50:12.264Z,99211.83
2023-12-26T05:53:19.676Z,99212.48
2023-12-26T05:56:25.401Z,99212.38
2023-12-26T05:59:31.174Z,99227.64
2023-12-26T06:02:37.296Z,99246.52
2023-12-26T06:05:45.168Z,99224.09
2023-12-26T06:08:51.759Z,99255.91
2023-12-26T06:11:58.300Z,99253.39
2023-12-26T06:15:04.955Z,99264.11
2023-12-26T06:18:10.756Z,99255.02
2023-12-26T06:21:16.901Z,99261.48
2023-12-26T06:24:24.580Z,99265.48
2023-12-26T06:27:30.421Z,99268.03
2023-12-26T06:30:35.981Z,99285.84
2023-12-26T06:33:43.339Z,99287.19
2023-12-26T06:36:49.905Z,99299.01
2023-12-26T06:39:56.592Z,99307.98
2023-12-26T06:43:02.446Z,99313.56
2023-12-26T06:46:08.032Z,99322.28
2023-12-26T06:49:14.784Z,99320.80
2023-12-26T06:52:19.081Z,99331.12
2023-12-26T06:55:29.141Z,99326.89
2023-12-26T06:58:35.841Z,99337.72
2023-12-26T07:01:42.279Z,99340.58
2023-12-26T07:04:47.356Z,99346.16
2023-12-26T07:07:53.494Z,99358.67
2023-12-26T07:11:00.280Z,99359.48
2023-12-26T07:14:06.193Z,99364.41
2023-12-26T07:17:12.583Z,99374.03
2023-12-26T07:20:18.909Z,99379.79
2023-12-26T07:23:25.493Z,99387.34
2023-12-26T07:26:31.014Z,99391.00
2023-12-26T07:29:38.109Z,99393.20
2023-12-26T07:32:46.777Z,99393.50
2023-12-26T07:35:53.556Z,99410.17
2023-12-26T07:38:58.691Z,99412.73
2023-12-26T07:42:04.015Z,99408.13
2023-12-26T07:45:12.284Z,99420.67
2023-12-26T07:48:19.751Z,99430.71
2023-12-26T07:51:28.054Z,99431.94
2023-12-26T07:54:33.486Z,99449.71
2023-12-26T07:57:39.596Z,99456.20
2023-12-26T08:00:45.087Z,99460.94
2023-12-26T08:03:51.604Z,99458.14
2023-12-26T08:06:58.586Z,99469.03
2023-12-26T08:10:04.311Z,99467.42
2023-12-26T08:13:11.353Z,99467.61
2023-12-26T08:16:21.629Z,99460.86
2023-12-26T08:19:27.189Z,99465.45
2023-12-26T08:22:34.176Z,99460.61
2023-12-26T08:25:40.046Z,99459.96
2023-12-26T08:28:46.333Z,99463.20
2023-12-26T08:31:52.331Z,99457.86
2023-12-26T08:34:58.896Z,99461.69
2023-12-26T08:38:06.786Z,99468.52
2023-12-26T08:41:14.241Z,99464.63
2023-12-26T08:44:24.647Z,99470.13
2023-12-26T08:47:29.818Z,99469.94
2023-12-26T08:50:36.618Z,99474.23
2023-12-26T08:53:41.684Z,99478.31
2023-12-26T08:56:51.725Z,99483.20
2023-12-26T08:59:58.745Z,99479.39
2023-12-26T09:26:16.301Z,99482.12
2023-12-26T09:29:22.067Z,99498.25
2023-12-26T09:32:22.897Z,99498.78
2023-12-26T09:35:09.790Z,99499.91
2023-12-26T09:38:03.380Z,99515.22
2023-12-26T09:40:50.652Z,99520.19
2023-12-26T09:43:44.176Z,99506.91
2023-12-26T09:46:37.072Z,99504.06
2023-12-26T09:49:43.444Z,99496.73
2023-12-26T09:52:49.830Z,99501.17
2023-12-26T09:55:57.773Z,99498.56
2023-12-26T09:59:04.436Z,99484.05
2023-12-26T10:02:09.720Z,99473.19
2023-12-26T10:05:16.428Z,99478.77
2023-12-26T10:08:22.369Z,99497.25
2023-12-26T10:11:29.014Z,99492.16
2023-12-26T10:14:46.583Z,99493.84
2023-12-26T10:17:54.073Z,99509.14
2023-12-26T10:20:59.719Z,99509.38
2023-12-26T10:24:06.489Z,99517.14
2023-12-26T10:27:12.295Z,99513.53
2023-12-26T10:30:18.563Z,99513.78
2023-12-26T10:33:23.833Z,99516.16
2023-12-26T10:36:30.021Z,99496.57
2023-12-26T10:39:35.612Z,99511.37
2023-12-26T10:42:41.167Z,99534.67
2023-12-26T10:45:46.999Z,99541.94
2023-12-26T10:48:53.086Z,99543.30
2023-12-26T10:52:00.297Z,99552.98
2023-12-26T10:55:08.458Z,99556.69
2023-12-26T10:58:38.865Z,99560.20
2023-12-26T11:02:38.550Z,99561.22
2023-12-26T11:07:15.937Z,99560.17
2023-12-26T11:11:51.848Z,99558.27
2023-12-26T11:16:27.154Z,99572.55
2023-12-26T11:21:03.446Z,99571.99
2023-12-26T11:25:37.858Z,99578.64
2023-12-26T11:30:16.188Z,99575.73
2023-12-26T11:34:51.180Z,99579.59
2023-12-26T11:39:27.049Z,99578.01
2023-12-26T11:44:03.626Z,99586.50
2023-12-26T11:48:41.754Z,99596.36
2023-12-26T11:53:16.679Z,99604.45
2023-12-26T11:57:52.843Z,99620.31
2023-12-26T12:02:28.424Z,99615.95
2023-12-26T12:07:06.220Z,99608.39
2023-12-26T12:11:42.489Z,99610.91
2023-12-26T12:16:17.661Z,99612.36
2023-12-26T12:20:54.557Z,99623.50
2023-12-26T12:25:30.174Z,99616.21
2023-12-26T12:30:07.538Z,99630.55
2023-12-26T12:34:43.277Z,99631.26
2023-12-26T12:39:19.275Z,99632.12
2023-12-26T12:43:54.536Z,99631.26
2023-12-26T12:48:29.644Z,99640.77
2023-12-26T12:53:06.735Z,99646.14
2023-12-26T12:57:43.474Z,99651.47
2023-12-26T13:02:25.545Z,99641.30
2023-12-26T13:07:00.697Z,99649.32
2023-12-26T13:11:35.947Z,99643.13
2023-12-26T13:16:11.308Z,99641.18
2023-12-26T13:20:47.256Z,99646.72
2023-12-26T13:25:24.487Z,99666.39
2023-12-26T13:30:00.921Z,99665.75
2023-12-26T13:34:38.217Z,99661.43
2023-12-26T13:39:13.380Z,99658.04
2023-12-26T13:43:50.231Z,99659.52
2023-12-26T13:48:26.860Z,99673.77
2023-12-26T13:52:44.134Z,99683.82
2023-12-26T13:56:43.410Z,99688.00
2023-12-26T14:00:46.093Z,99685.80
2023-12-26T14:04:48.552Z,99693.95
2023-12-26T14:08:49.568Z,99689.28
2023-12-26T14:12:49.858Z,99687.13
2023-12-26T14:16:49.930Z,99689.53
2023-12-26T14:20:50.286Z,99698.28
2023-12-26T14:24:50.423Z,99700.70
2023-12-26T14:28:50.577Z,99696.70
2023-12-26T14:32:50.459Z,99692.13
2023-12-26T14:36:53.332Z,99692.13
2023-12-26T14:40:54.264Z,99704.70
2023-12-26T14:44:35.891Z,99695.30
2023-12-26T14:56:50.431Z,99702.17
2023-12-26T15:00:51.000Z,99713.91
2023-12-26T15:03:57.638Z,99709.44
2023-12-26T15:07:03.821Z,99712.13
2023-12-26T15:10:10.274Z,99706.14
2023-12-26T15:13:25.247Z,99694.83
2023-12-26T15:20:52.027Z,99690.28
2023-12-26T15:23:59.306Z,99687.56
2023-12-26T15:27:05.299Z,99682.86
2023-12-26T15:30:12.230Z,99679.83
2023-12-26T15:33:18.699Z,99681.56
2023-12-26T15:36:33.756Z,99676.13
2023-12-26T15:39:39.602Z,99674.45
2023-12-26T15:42:46.284Z,99672.95
2023-12-26T15:45:54.776Z,99664.59
2023-12-26T15:49:02.489Z,99662.70
2023-12-26T15:52:07.989Z,99663.49
2023-12-26T15:55:14.084Z,99657.28
2023-12-26T15:58:20.787Z,99653.31
2023-12-26T16:01:28.492Z,99649.27
2023-12-26T16:04:35.777Z,99662.62
2023-12-26T16:07:42.388Z,99656.51
2023-12-26T16:10:48.617Z,99654.42
2023-12-26T16:13:55.201Z,99649.89
2023-12-26T16:17:00.305Z,99653.53
2023-12-26T16:20:04.999Z,99653.17
2023-12-26T16:23:12.047Z,99649.74
2023-12-26T16:26:22.779Z,99651.73
2023-12-26T16:29:28.373Z,99642.25
2023-12-26T16:32:35.091Z,99652.72
2023-12-26T16:35:44.116Z,99649.21
2023-12-26T16:38:51.142Z,99642.57
2023-12-26T16:42:01.994Z,99644.79
2023-12-26T16:45:08.784Z,99644.16
2023-12-26T16:48:15.595Z,99651.19
2023-12-26T16:51:22.130Z,99642.27
2023-12-26T16:54:28.002Z,99637.89
2023-12-26T16:57:37.366Z,99642.09
2023-12-26T17:00:45.711Z,99636.67
2023-12-26T17:03:55.993Z,99625.08
2023-12-26T17:07:02.913Z,99614.95
2023-12-26T17:10:08.858Z,99612.60
2023-12-26T17:13:19.144Z,99611.92
2023-12-26T17:16:34.161Z,99622.30
2023-12-26T17:19:43.297Z,99616.55
2023-12-26T17:22:54.546Z,99609.48
2023-12-26T17:26:03.427Z,99614.86
2023-12-26T17:29:08.279Z,99609.30
2023-12-26T17:32:17.418Z,99606.89
2023-12-26T17:35:24.889Z,99603.70
2023-12-26T17:38:30.738Z,99592.43
2023-12-26T17:41:41.931Z,99582.17
2023-12-26T17:44:58.552Z,99577.83
2023-12-26T17:48:05.729Z,99562.96
2023-12-26T17:51:12.436Z,99561.71
2023-12-26T17:54:22.096Z,99559.45
2023-12-26T17:57:29.320Z,99546.11
2023-12-26T18:00:37.047Z,99538.58
2023-12-26T18:03:46.066Z,99540.98
2023-12-26T18:06:53.444Z,99539.64
2023-12-26T18:10:00.484Z,99531.85
2023-12-26T18:13:07.595Z,99529.20
2023-12-26T18:16:16.733Z,99520.27
2023-12-26T18:19:23.137Z,99510.95
2023-12-26T18:22:31.369Z,99512.02
2023-12-26T18:25:41.372Z,99507.47
2023-12-26T18:28:48.770Z,99502.52
2023-12-26T18:31:54.214Z,99496.91
2023-12-26T18:35:02.141Z,99489.54
2023-12-26T18:38:07.577Z,99483.73
2023-12-26T18:41:15.819Z,99488.08
2023-12-26T18:44:26.026Z,99487.44
2023-12-26T18:47:38.220Z,99484.26
2023-12-26T18:50:46.618Z,99481.31
2023-12-26T18:53:54.823Z,99476.34
2023-12-26T18:57:02.387Z,99466.20
2023-12-26T19:00:12.444Z,99464.43
2023-12-26T19:03:19.115Z,99456.21
2023-12-26T19:06:29.404Z,99454.30
2023-12-26T19:09:36.126Z,99443.20
2023-12-26T19:12:45.452Z,99448.49
2023-12-26T19:15:53.897Z,99444.25
2023-12-26T19:19:03.733Z,99442.67
2023-12-26T19:22:18.298Z,99441.12
2023-12-26T19:25:27.422Z,99443.43
2023-12-26T19:28:39.501Z,99440.02
2023-12-26T19:31:48.020Z,99440.98
2023-12-26T19:34:56.464Z,99441.73
2023-12-26T19:38:06.207Z,99437.82
2023-12-26T19:41:14.777Z,99450.78
2023-12-26T19:44:25.076Z,99441.07
2023-12-26T19:47:38.111Z,99442.67
2023-12-26T19:50:48.952Z,99446.55
2023-12-26T19:53:57.346Z,99451.27
2023-12-26T19:57:04.155Z,99441.89
2023-12-26T20:00:13.708Z,99442.86
2023-12-26T20:03:22.677Z,99451.76
2023-12-26T20:06:15.982Z,99437.18
2023-12-26T20:09:26.720Z,99433.78
2023-12-26T20:12:32.758Z,99436.30
2023-12-26T20:15:39.754Z,99428.77
2023-12-26T20:18:49.533Z,99421.97
2023-12-26T20:21:56.582Z,99421.27
2023-12-26T20:25:02.368Z,99422.11
2023-12-26T20:28:11.284Z,99416.02
2023-12-26T20:31:18.973Z,99416.39
2023-12-26T20:34:26.806Z,99423.20
2023-12-26T20:37:35.223Z,99420.11
2023-12-26T20:40:41.520Z,99431.58
2023-12-26T20:43:47.653Z,99428.50
2023-12-26T20:46:55.130Z,99417.55
2023-12-26T20:50:01.547Z,99403.20
2023-12-26T20:53:09.192Z,99420.34
2023-12-26T20:56:19.248Z,99414.45
2023-12-26T20:59:30.943Z,99424.45
2023-12-26T21:02:42.175Z,99422.66
2023-12-26T21:05:51.157Z,99424.15
2023-12-26T21:08:58.987Z,99438.74
2023-12-26T21:12:05.322Z,99429.35
2023-12-26T21:15:12.432Z,99425.55
2023-12-26T21:18:19.139Z,99426.71
2023-12-26T21:21:24.816Z,99433.25
2023-12-26T21:24:31.392Z,99420.38
2023-12-26T21:27:38.441Z,99416.36
2023-12-26T21:30:44.621Z,99412.16
2023-12-26T21:33:53.724Z,99403.91
2023-12-26T21:37:00.935Z,99409.53
2023-12-26T21:40:08.797Z,99400.27
2023-12-26T21:43:15.841Z,99391.87
2023-12-26T21:46:27.652Z,99389.81
2023-12-26T21:49:34.725Z,99388.55
2023-12-26T21:52:42.556Z,99390.13
2023-12-26T21:55:49.960Z,99398.84
2023-12-26T21:58:55.834Z,99403.69
2023-12-26T22:02:00.946Z,99405.69
2023-12-26T22:05:06.389Z,99398.00
2023-12-26T22:08:12.674Z,99398.73
2023-12-26T22:11:18.930Z,99393.33
2023-12-26T22:14:24.857Z,99394.84
2023-12-26T22:17:30.535Z,99395.89
2023-12-26T22:20:37.073Z,99390.15
2023-12-26T22:23:45.504Z,99374.02
2023-12-26T22:26:51.233Z,99380.36
2023-12-26T22:29:58.493Z,99378.45
2023-12-26T22:33:04.954Z,99389.78
2023-12-26T22:36:11.675Z,99384.45
2023-12-26T22:39:17.580Z,99376.02
2023-12-26T22:42:24.260Z,99379.20
2023-12-26T22:45:29.931Z,99388.40
2023-12-26T22:48:39.459Z,99380.84
2023-12-26T22:51:43.781Z,99384.95
2023-12-26T22:54:50.668Z,99380.88
2023-12-26T22:57:57.660Z,99378.48
2023-12-26T23:01:03.433Z,99365.64
2023-12-26T23:04:08.686Z,99381.53
2023-12-26T23:07:13.693Z,99394.30
2023-12-26T23:10:21.162Z,99377.92
2023-12-26T23:13:26.840Z,99378.14
2023-12-26T23:16:32.866Z,99388.56
2023-12-26T23:19:39.226Z,99384.97
2023-12-26T23:22:44.996Z,99386.61
2023-12-26T23:25:50.048Z,99388.19
2023-12-26T23:28:56.111Z,99361.11
2023-12-26T23:32:04.081Z,99378.03
2023-12-26T23:35:12.008Z,99382.14
2023-12-26T23:38:18.571Z,99383.38
2023-12-26T23:41:24.802Z,99390.41
2023-12-26T23:44:29.897Z,99384.71
2023-12-26T23:47:35.975Z,99383.52
2023-12-26T23:50:42.510Z,99383.86
2023-12-26T23:53:48.268Z,99386.14
2023-12-26T23:56:54.497Z,99395.16
